Pomme de Terre River (Missouri), Hermitage (06921350)

StateMissouriLatestHigh (2820 cfs)
RiverPomme de Terre RiverRatingObservedEstimated
Updated2020-04-07 20:45 (1 hour ago)Flood - The river is flooding. Obstacles can be treacherous or deadly. The river should be avoided at this stage for casual trips and definitely for the inexperienced. Trips should be attempted only with protective gear and equipment.Flood(none)3086
Discharge2820 cfs (median: 370 cfs)High - The river is high and potentially dangerous, especially for the young and / or inexperienced. Normal stream obstacles are sometimes difficult to navigate. Extended distances can be attempted, but canoe travel may not be advisable.High(none)1476
Height8.08 feetGood - Conditions are ideal for a canoe or kayak. Boats typically will drag on fewer than one-quarter of riffles, if at all, and portages are unnecessary or rare. Normal float lengths can be attempted without a problem.Good(none)303
TrendFalling (rising over 24 hours)Low - River is low but can still be floated. Some riffles are okay but most come with significant dragging and might need a portage. Float lengths should be reduced to accommodate low flow, dragging, and portages.Low(none)248
USGSExternal icon USGS Site (External icon Google Maps)Poor - River is too low to float comfortably. Most or all riffles will drag or must be portaged and some obstacles (such as slick shelf rock) cause undue problems. Avoid the river at this stage for casual paddling trips.Poor(none)74

Trending Data

Plot Image

Trips for Pomme de Terre River (Missouri), Hermitage (06921350)

DateStartEndDistanceConditionDischargeHeightFishingDetails

A total of 0 rows are displayed.

Condition Descriptions

Fishing Conditions

Fish Species

Notes

Classic Trip List

The classic River Trips application is still available for use. It is updated with the new system using a data retrofit. It is no longer maintained. The original River Trips application is no longer updated (as of 1 Dec 2016) but can be checked for errors or for the condition of the data before it was converted to the new system.

Gauge Data Table

ObservationHeightDischargeMaximum
Discharge
Minimum
Discharge
Mean
Discharge
P05P10P20P25P50
(Median)
P75P80P90P95
2020-04-07 20:45 8.08 2820 3550 (1985) 25 (1963) 666 37 50 77 92 370 810 975 1970 2940
2020-04-07 19:45 8.09 2830 3550 (1985) 25 (1963) 666 37 50 77 92 370 810 975 1970 2940
2020-04-07 18:45 8.08 2820 3550 (1985) 25 (1963) 666 37 50 77 92 370 810 975 1970 2940
2020-04-07 17:45 8.09 2830 3550 (1985) 25 (1963) 666 37 50 77 92 370 810 975 1970 2940
2020-04-07 16:45 8.09 2830 3550 (1985) 25 (1963) 666 37 50 77 92 370 810 975 1970 2940
2020-04-07 15:45 8.09 2830 3550 (1985) 25 (1963) 666 37 50 77 92 370 810 975 1970 2940
2020-04-07 14:45 8.10 2840 3550 (1985) 25 (1963) 666 37 50 77 92 370 810 975 1970 2940
2020-04-07 13:45 8.10 2840 3550 (1985) 25 (1963) 666 37 50 77 92 370 810 975 1970 2940
2020-04-07 12:45 8.10 2840 3550 (1985) 25 (1963) 666 37 50 77 92 370 810 975 1970 2940
2020-04-07 11:45 8.09 2830 3550 (1985) 25 (1963) 666 37 50 77 92 370 810 975 1970 2940
2020-04-07 10:45 8.10 2840 3550 (1985) 25 (1963) 666 37 50 77 92 370 810 975 1970 2940
2020-04-07 09:45 8.09 2830 3550 (1985) 25 (1963) 666 37 50 77 92 370 810 975 1970 2940
2020-04-07 08:45 8.07 2810 3550 (1985) 25 (1963) 666 37 50 77 92 370 810 975 1970 2940
2020-04-07 07:45 8.00 2760 3550 (1985) 25 (1963) 666 37 50 77 92 370 810 975 1970 2940
2020-04-07 06:45 8.01 2760 3550 (1985) 25 (1963) 666 37 50 77 92 370 810 975 1970 2940
2020-04-07 05:45 8.00 2760 3550 (1985) 25 (1963) 666 37 50 77 92 370 810 975 1970 2940
2020-04-07 04:45 8.00 2760 3550 (1985) 25 (1963) 666 37 50 77 92 370 810 975 1970 2940
2020-04-07 03:45 8.01 2760 3550 (1985) 25 (1963) 666 37 50 77 92 370 810 975 1970 2940
2020-04-07 02:45 8.00 2760 3550 (1985) 25 (1963) 666 37 50 77 92 370 810 975 1970 2940
2020-04-07 01:45 8.00 2760 3550 (1985) 25 (1963) 666 37 50 77 92 370 810 975 1970 2940
2020-04-07 00:45 8.00 2760 3550 (1985) 25 (1963) 666 37 50 77 92 370 810 975 1970 2940
2020-04-06 23:45 8.00 2760 3560 (1985) 2 (2011) 645 28 41 53 92 303 809 958 1980 2940
2020-04-06 22:45 8.00 2760 3560 (1985) 2 (2011) 645 28 41 53 92 303 809 958 1980 2940
2020-04-06 21:45 8.01 2760 3560 (1985) 2 (2011) 645 28 41 53 92 303 809 958 1980 2940
2020-04-06 20:45 8.01 2760 3560 (1985) 2 (2011) 645 28 41 53 92 303 809 958 1980 2940
2020-04-06 19:45 8.01 2760 3560 (1985) 2 (2011) 645 28 41 53 92 303 809 958 1980 2940
2020-04-06 18:45 8.01 2760 3560 (1985) 2 (2011) 645 28 41 53 92 303 809 958 1980 2940
2020-04-06 17:45 8.01 2760 3560 (1985) 2 (2011) 645 28 41 53 92 303 809 958 1980 2940
2020-04-06 16:45 8.01 2760 3560 (1985) 2 (2011) 645 28 41 53 92 303 809 958 1980 2940
2020-04-06 15:45 8.01 2760 3560 (1985) 2 (2011) 645 28 41 53 92 303 809 958 1980 2940
2020-04-06 14:45 8.01 2760 3560 (1985) 2 (2011) 645 28 41 53 92 303 809 958 1980 2940
2020-04-06 13:45 8.00 2760 3560 (1985) 2 (2011) 645 28 41 53 92 303 809 958 1980 2940
2020-04-06 12:45 8.02 2770 3560 (1985) 2 (2011) 645 28 41 53 92 303 809 958 1980 2940
2020-04-06 11:45 8.01 2760 3560 (1985) 2 (2011) 645 28 41 53 92 303 809 958 1980 2940
2020-04-06 10:45 8.00 2760 3560 (1985) 2 (2011) 645 28 41 53 92 303 809 958 1980 2940
2020-04-06 09:45 8.02 2770 3560 (1985) 2 (2011) 645 28 41 53 92 303 809 958 1980 2940
2020-04-06 08:45 8.01 2760 3560 (1985) 2 (2011) 645 28 41 53 92 303 809 958 1980 2940
2020-04-06 07:45 8.01 2760 3560 (1985) 2 (2011) 645 28 41 53 92 303 809 958 1980 2940
2020-04-06 06:45 8.00 2760 3560 (1985) 2 (2011) 645 28 41 53 92 303 809 958 1980 2940
2020-04-06 05:45 8.01 2760 3560 (1985) 2 (2011) 645 28 41 53 92 303 809 958 1980 2940
2020-04-06 04:45 8.00 2760 3560 (1985) 2 (2011) 645 28 41 53 92 303 809 958 1980 2940
2020-04-06 03:45 8.01 2760 3560 (1985) 2 (2011) 645 28 41 53 92 303 809 958 1980 2940
2020-04-06 02:45 8.02 2770 3560 (1985) 2 (2011) 645 28 41 53 92 303 809 958 1980 2940
2020-04-06 01:45 8.00 2760 3560 (1985) 2 (2011) 645 28 41 53 92 303 809 958 1980 2940
2020-04-06 00:45 8.01 2760 3560 (1985) 2 (2011) 645 28 41 53 92 303 809 958 1980 2940
2020-04-05 23:45 8.02 2770 3550 (1985) 2 (2011) 666 25 41 88 92 299 811 989 2330 2950
2020-04-05 22:45 8.01 2760 3550 (1985) 2 (2011) 666 25 41 88 92 299 811 989 2330 2950
2020-04-05 21:45 8.01 2760 3550 (1985) 2 (2011) 666 25 41 88 92 299 811 989 2330 2950
2020-04-05 20:45 8.02 2770 3550 (1985) 2 (2011) 666 25 41 88 92 299 811 989 2330 2950
2020-04-05 19:45 8.02 2770 3550 (1985) 2 (2011) 666 25 41 88 92 299 811 989 2330 2950
2020-04-05 18:45 8.02 2770 3550 (1985) 2 (2011) 666 25 41 88 92 299 811 989 2330 2950
2020-04-05 17:45 8.02 2770 3550 (1985) 2 (2011) 666 25 41 88 92 299 811 989 2330 2950
2020-04-05 16:45 8.02 2770 3550 (1985) 2 (2011) 666 25 41 88 92 299 811 989 2330 2950
2020-04-05 15:45 8.02 2770 3550 (1985) 2 (2011) 666 25 41 88 92 299 811 989 2330 2950
2020-04-05 14:45 8.02 2770 3550 (1985) 2 (2011) 666 25 41 88 92 299 811 989 2330 2950
2020-04-05 13:45 8.02 2770 3550 (1985) 2 (2011) 666 25 41 88 92 299 811 989 2330 2950
2020-04-05 12:45 8.02 2770 3550 (1985) 2 (2011) 666 25 41 88 92 299 811 989 2330 2950
2020-04-05 11:45 8.02 2770 3550 (1985) 2 (2011) 666 25 41 88 92 299 811 989 2330 2950
2020-04-05 10:45 8.03 2780 3550 (1985) 2 (2011) 666 25 41 88 92 299 811 989 2330 2950
2020-04-05 09:45 8.10 2840 3550 (1985) 2 (2011) 666 25 41 88 92 299 811 989 2330 2950
2020-04-05 08:45 8.28 3000 3550 (1985) 2 (2011) 666 25 41 88 92 299 811 989 2330 2950
2020-04-05 07:45 8.27 2990 3550 (1985) 2 (2011) 666 25 41 88 92 299 811 989 2330 2950
2020-04-05 06:45 8.28 3000 3550 (1985) 2 (2011) 666 25 41 88 92 299 811 989 2330 2950
2020-04-05 05:45 8.27 2990 3550 (1985) 2 (2011) 666 25 41 88 92 299 811 989 2330 2950
2020-04-05 04:45 8.27 2990 3550 (1985) 2 (2011) 666 25 41 88 92 299 811 989 2330 2950
2020-04-05 03:45 8.28 3000 3550 (1985) 2 (2011) 666 25 41 88 92 299 811 989 2330 2950
2020-04-05 02:45 8.28 3000 3550 (1985) 2 (2011) 666 25 41 88 92 299 811 989 2330 2950
2020-04-05 01:45 8.28 3000 3550 (1985) 2 (2011) 666 25 41 88 92 299 811 989 2330 2950
2020-04-05 00:45 8.28 3000 3550 (1985) 2 (2011) 666 25 41 88 92 299 811 989 2330 2950
2020-04-04 23:45 8.28 3000 3550 (1985) 2 (2011) 743 25 41 68 91 330 975 1310 2330 2960
2020-04-04 22:45 8.28 3000 3550 (1985) 2 (2011) 743 25 41 68 91 330 975 1310 2330 2960
2020-04-04 21:45 8.27 2990 3550 (1985) 2 (2011) 743 25 41 68 91 330 975 1310 2330 2960
2020-04-04 20:45 8.28 3000 3550 (1985) 2 (2011) 743 25 41 68 91 330 975 1310 2330 2960
2020-04-04 19:45 8.28 3000 3550 (1985) 2 (2011) 743 25 41 68 91 330 975 1310 2330 2960
2020-04-04 18:45 8.28 3000 3550 (1985) 2 (2011) 743 25 41 68 91 330 975 1310 2330 2960
2020-04-04 17:45 8.28 3000 3550 (1985) 2 (2011) 743 25 41 68 91 330 975 1310 2330 2960
2020-04-04 16:45 8.28 3000 3550 (1985) 2 (2011) 743 25 41 68 91 330 975 1310 2330 2960
2020-04-04 15:45 8.28 3000 3550 (1985) 2 (2011) 743 25 41 68 91 330 975 1310 2330 2960
2020-04-04 14:45 8.29 3010 3550 (1985) 2 (2011) 743 25 41 68 91 330 975 1310 2330 2960
2020-04-04 13:45 8.28 3000 3550 (1985) 2 (2011) 743 25 41 68 91 330 975 1310 2330 2960
2020-04-04 12:45 8.28 3000 3550 (1985) 2 (2011) 743 25 41 68 91 330 975 1310 2330 2960
2020-04-04 11:45 8.28 3000 3550 (1985) 2 (2011) 743 25 41 68 91 330 975 1310 2330 2960
2020-04-04 10:45 8.28 3000 3550 (1985) 2 (2011) 743 25 41 68 91 330 975 1310 2330 2960
2020-04-04 09:45 8.28 3000 3550 (1985) 2 (2011) 743 25 41 68 91 330 975 1310 2330 2960
2020-04-04 08:45 8.29 3010 3550 (1985) 2 (2011) 743 25 41 68 91 330 975 1310 2330 2960
2020-04-04 07:45 8.29 3010 3550 (1985) 2 (2011) 743 25 41 68 91 330 975 1310 2330 2960
2020-04-04 06:45 8.28 3000 3550 (1985) 2 (2011) 743 25 41 68 91 330 975 1310 2330 2960
2020-04-04 05:45 8.29 3010 3550 (1985) 2 (2011) 743 25 41 68 91 330 975 1310 2330 2960
2020-04-04 04:45 8.28 3000 3550 (1985) 2 (2011) 743 25 41 68 91 330 975 1310 2330 2960
2020-04-04 03:45 8.28 3000 3550 (1985) 2 (2011) 743 25 41 68 91 330 975 1310 2330 2960
2020-04-04 02:45 8.28 3000 3550 (1985) 2 (2011) 743 25 41 68 91 330 975 1310 2330 2960
2020-04-04 01:45 8.29 3010 3550 (1985) 2 (2011) 743 25 41 68 91 330 975 1310 2330 2960
2020-04-04 00:45 8.29 3010 3550 (1985) 2 (2011) 743 25 41 68 91 330 975 1310 2330 2960
2020-04-03 23:45 8.29 3010 4070 (1974) 1 (2012) 804 25 45 88 93 299 1010 1510 2600 2960
2020-04-03 22:45 8.29 3010 4070 (1974) 1 (2012) 804 25 45 88 93 299 1010 1510 2600 2960
2020-04-03 21:45 8.29 3010 4070 (1974) 1 (2012) 804 25 45 88 93 299 1010 1510 2600 2960
2020-04-03 20:45 8.29 3010 4070 (1974) 1 (2012) 804 25 45 88 93 299 1010 1510 2600 2960
2020-04-03 19:45 8.29 3010 4070 (1974) 1 (2012) 804 25 45 88 93 299 1010 1510 2600 2960
2020-04-03 18:45 8.29 3010 4070 (1974) 1 (2012) 804 25 45 88 93 299 1010 1510 2600 2960
2020-04-03 17:45 8.29 3010 4070 (1974) 1 (2012) 804 25 45 88 93 299 1010 1510 2600 2960
2020-04-03 16:45 8.29 3010 4070 (1974) 1 (2012) 804 25 45 88 93 299 1010 1510 2600 2960
2020-04-03 15:45 8.30 3020 4070 (1974) 1 (2012) 804 25 45 88 93 299 1010 1510 2600 2960
2020-04-03 14:45 8.29 3010 4070 (1974) 1 (2012) 804 25 45 88 93 299 1010 1510 2600 2960
2020-04-03 13:45 8.29 3010 4070 (1974) 1 (2012) 804 25 45 88 93 299 1010 1510 2600 2960
2020-04-03 12:45 8.29 3010 4070 (1974) 1 (2012) 804 25 45 88 93 299 1010 1510 2600 2960
2020-04-03 11:45 8.29 3010 4070 (1974) 1 (2012) 804 25 45 88 93 299 1010 1510 2600 2960
2020-04-03 10:45 8.30 3020 4070 (1974) 1 (2012) 804 25 45 88 93 299 1010 1510 2600 2960
2020-04-03 09:45 8.30 3020 4070 (1974) 1 (2012) 804 25 45 88 93 299 1010 1510 2600 2960
2020-04-03 08:45 8.30 3020 4070 (1974) 1 (2012) 804 25 45 88 93 299 1010 1510 2600 2960
2020-04-03 07:45 8.29 3010 4070 (1974) 1 (2012) 804 25 45 88 93 299 1010 1510 2600 2960
2020-04-03 06:45 8.29 3010 4070 (1974) 1 (2012) 804 25 45 88 93 299 1010 1510 2600 2960
2020-04-03 05:45 8.30 3020 4070 (1974) 1 (2012) 804 25 45 88 93 299 1010 1510 2600 2960
2020-04-03 04:45 8.29 3010 4070 (1974) 1 (2012) 804 25 45 88 93 299 1010 1510 2600 2960
2020-04-03 03:45 8.29 3010 4070 (1974) 1 (2012) 804 25 45 88 93 299 1010 1510 2600 2960
2020-04-03 02:45 8.30 3020 4070 (1974) 1 (2012) 804 25 45 88 93 299 1010 1510 2600 2960
2020-04-03 01:45 8.29 3010 4070 (1974) 1 (2012) 804 25 45 88 93 299 1010 1510 2600 2960
2020-04-03 00:45 8.30 3020 4070 (1974) 1 (2012) 804 25 45 88 93 299 1010 1510 2600 2960
2020-04-02 23:45 8.31 3030 4070 (1974) 2 (2011) 833 25 45 52 91 398 1140 1470 2600 2960
2020-04-02 22:45 8.30 3020 4070 (1974) 2 (2011) 833 25 45 52 91 398 1140 1470 2600 2960
2020-04-02 21:45 8.29 3010 4070 (1974) 2 (2011) 833 25 45 52 91 398 1140 1470 2600 2960
2020-04-02 20:45 8.29 3010 4070 (1974) 2 (2011) 833 25 45 52 91 398 1140 1470 2600 2960
2020-04-02 19:45 8.30 3020 4070 (1974) 2 (2011) 833 25 45 52 91 398 1140 1470 2600 2960
2020-04-02 18:45 8.31 3030 4070 (1974) 2 (2011) 833 25 45 52 91 398 1140 1470 2600 2960
2020-04-02 17:45 8.31 3030 4070 (1974) 2 (2011) 833 25 45 52 91 398 1140 1470 2600 2960
2020-04-02 16:45 8.31 3030 4070 (1974) 2 (2011) 833 25 45 52 91 398 1140 1470 2600 2960
2020-04-02 15:45 8.30 3020 4070 (1974) 2 (2011) 833 25 45 52 91 398 1140 1470 2600 2960
2020-04-02 14:45 8.31 3030 4070 (1974) 2 (2011) 833 25 45 52 91 398 1140 1470 2600 2960
2020-04-02 13:45 8.31 3030 4070 (1974) 2 (2011) 833 25 45 52 91 398 1140 1470 2600 2960
2020-04-02 12:45 8.30 3020 4070 (1974) 2 (2011) 833 25 45 52 91 398 1140 1470 2600 2960
2020-04-02 11:45 8.30 3020 4070 (1974) 2 (2011) 833 25 45 52 91 398 1140 1470 2600 2960
2020-04-02 10:45 8.30 3020 4070 (1974) 2 (2011) 833 25 45 52 91 398 1140 1470 2600 2960
2020-04-02 09:45 8.30 3020 4070 (1974) 2 (2011) 833 25 45 52 91 398 1140 1470 2600 2960
2020-04-02 08:45 8.30 3020 4070 (1974) 2 (2011) 833 25 45 52 91 398 1140 1470 2600 2960
2020-04-02 07:45 8.30 3020 4070 (1974) 2 (2011) 833 25 45 52 91 398 1140 1470 2600 2960
2020-04-02 06:45 8.30 3020 4070 (1974) 2 (2011) 833 25 45 52 91 398 1140 1470 2600 2960
2020-04-02 05:45 8.30 3020 4070 (1974) 2 (2011) 833 25 45 52 91 398 1140 1470 2600 2960
2020-04-02 04:45 8.30 3020 4070 (1974) 2 (2011) 833 25 45 52 91 398 1140 1470 2600 2960
2020-04-02 03:45 8.30 3020 4070 (1974) 2 (2011) 833 25 45 52 91 398 1140 1470 2600 2960
2020-04-02 02:45 8.30 3020 4070 (1974) 2 (2011) 833 25 45 52 91 398 1140 1470 2600 2960
2020-04-02 01:45 8.31 3030 4070 (1974) 2 (2011) 833 25 45 52 91 398 1140 1470 2600 2960
2020-04-02 00:45 8.31 3030 4070 (1974) 2 (2011) 833 25 45 52 91 398 1140 1470 2600 2960
2020-04-01 23:45 8.30 3020 4070 (1974) 20 (2011) 854 27 45 51 88 396 1470 1510 2610 2960
2020-04-01 22:45 8.30 3020 4070 (1974) 20 (2011) 854 27 45 51 88 396 1470 1510 2610 2960
2020-04-01 21:45 8.31 3030 4070 (1974) 20 (2011) 854 27 45 51 88 396 1470 1510 2610 2960
2020-04-01 20:45 8.30 3020 4070 (1974) 20 (2011) 854 27 45 51 88 396 1470 1510 2610 2960
2020-04-01 19:45 8.30 3020 4070 (1974) 20 (2011) 854 27 45 51 88 396 1470 1510 2610 2960
2020-04-01 18:45 8.31 3030 4070 (1974) 20 (2011) 854 27 45 51 88 396 1470 1510 2610 2960
2020-04-01 17:45 8.31 3030 4070 (1974) 20 (2011) 854 27 45 51 88 396 1470 1510 2610 2960
2020-04-01 16:45 8.32 3030 4070 (1974) 20 (2011) 854 27 45 51 88 396 1470 1510 2610 2960
2020-04-01 15:45 8.32 3030 4070 (1974) 20 (2011) 854 27 45 51 88 396 1470 1510 2610 2960
2020-04-01 14:45 8.31 3030 4070 (1974) 20 (2011) 854 27 45 51 88 396 1470 1510 2610 2960
2020-04-01 13:45 8.31 3030 4070 (1974) 20 (2011) 854 27 45 51 88 396 1470 1510 2610 2960
2020-04-01 12:45 8.32 3030 4070 (1974) 20 (2011) 854 27 45 51 88 396 1470 1510 2610 2960
2020-04-01 11:45 8.30 3020 4070 (1974) 20 (2011) 854 27 45 51 88 396 1470 1510 2610 2960
2020-04-01 10:45 8.30 3020 4070 (1974) 20 (2011) 854 27 45 51 88 396 1470 1510 2610 2960
2020-04-01 09:45 8.30 3020 4070 (1974) 20 (2011) 854 27 45 51 88 396 1470 1510 2610 2960
2020-04-01 08:45 8.28 3000 4070 (1974) 20 (2011) 854 27 45 51 88 396 1470 1510 2610 2960
2020-04-01 07:45 8.24 2960 4070 (1974) 20 (2011) 854 27 45 51 88 396 1470 1510 2610 2960
2020-04-01 06:45 8.24 2960 4070 (1974) 20 (2011) 854 27 45 51 88 396 1470 1510 2610 2960
2020-04-01 05:45 8.23 2950 4070 (1974) 20 (2011) 854 27 45 51 88 396 1470 1510 2610 2960
2020-04-01 04:45 8.23 2950 4070 (1974) 20 (2011) 854 27 45 51 88 396 1470 1510 2610 2960
2020-04-01 03:45 8.23 2950 4070 (1974) 20 (2011) 854 27 45 51 88 396 1470 1510 2610 2960
2020-04-01 02:45 8.23 2950 4070 (1974) 20 (2011) 854 27 45 51 88 396 1470 1510 2610 2960
2020-04-01 01:45 8.23 2950 4070 (1974) 20 (2011) 854 27 45 51 88 396 1470 1510 2610 2960
2020-04-01 00:45 8.24 2960 4070 (1974) 20 (2011) 854 27 45 51 88 396 1470 1510 2610 2960
2020-03-31 23:45 8.23 2950 4160 (1974) 26 (2019) 873 44 48 79 90 392 1470 1790 2630 2970
2020-03-31 22:45 8.24 2960 4160 (1974) 26 (2019) 873 44 48 79 90 392 1470 1790 2630 2970
2020-03-31 21:45 8.24 2960 4160 (1974) 26 (2019) 873 44 48 79 90 392 1470 1790 2630 2970
2020-03-31 20:45 8.24 2960 4160 (1974) 26 (2019) 873 44 48 79 90 392 1470 1790 2630 2970
2020-03-31 19:45 8.23 2950 4160 (1974) 26 (2019) 873 44 48 79 90 392 1470 1790 2630 2970
2020-03-31 18:45 8.23 2950 4160 (1974) 26 (2019) 873 44 48 79 90 392 1470 1790 2630 2970
2020-03-31 17:45 8.24 2960 4160 (1974) 26 (2019) 873 44 48 79 90 392 1470 1790 2630 2970
2020-03-31 16:45 8.24 2960 4160 (1974) 26 (2019) 873 44 48 79 90 392 1470 1790 2630 2970
2020-03-31 15:45 8.24 2960 4160 (1974) 26 (2019) 873 44 48 79 90 392 1470 1790 2630 2970
2020-03-31 14:45 8.24 2960 4160 (1974) 26 (2019) 873 44 48 79 90 392 1470 1790 2630 2970
2020-03-31 13:45 8.25 2970 4160 (1974) 26 (2019) 873 44 48 79 90 392 1470 1790 2630 2970
2020-03-31 12:45 8.24 2960 4160 (1974) 26 (2019) 873 44 48 79 90 392 1470 1790 2630 2970
2020-03-31 11:45 8.25 2970 4160 (1974) 26 (2019) 873 44 48 79 90 392 1470 1790 2630 2970
2020-03-31 10:45 8.24 2960 4160 (1974) 26 (2019) 873 44 48 79 90 392 1470 1790 2630 2970
2020-03-31 09:45 8.24 2960 4160 (1974) 26 (2019) 873 44 48 79 90 392 1470 1790 2630 2970
2020-03-31 08:45 8.23 2950 4160 (1974) 26 (2019) 873 44 48 79 90 392 1470 1790 2630 2970
2020-03-31 07:45 8.23 2950 4160 (1974) 26 (2019) 873 44 48 79 90 392 1470 1790 2630 2970
2020-03-31 06:45 8.23 2950 4160 (1974) 26 (2019) 873 44 48 79 90 392 1470 1790 2630 2970
2020-03-31 05:45 8.24 2960 4160 (1974) 26 (2019) 873 44 48 79 90 392 1470 1790 2630 2970
2020-03-31 04:45 8.24 2960 4160 (1974) 26 (2019) 873 44 48 79 90 392 1470 1790 2630 2970
2020-03-31 03:45 8.24 2960 4160 (1974) 26 (2019) 873 44 48 79 90 392 1470 1790 2630 2970
2020-03-31 02:45 8.25 2970 4160 (1974) 26 (2019) 873 44 48 79 90 392 1470 1790 2630 2970
2020-03-31 01:45 8.24 2960 4160 (1974) 26 (2019) 873 44 48 79 90 392 1470 1790 2630 2970
2020-03-31 00:45 8.25 2970 4160 (1974) 26 (2019) 873 44 48 79 90 392 1470 1790 2630 2970

A total of 189 rows are displayed for years 1961 through 2019.